map of DRS home
DRS - Airport
Location
City:  Dresden, Saxony, Germany
Near (Alt.):Klotzsche
Name:Dresden Airport
Old (Alt.):Dresden-Klotzsche
ICAO:EDDC
IATA:DRS

Details
Type:Airport (Flugplatz, Airfield)
Use:Public/Civil
Latitude:5107'58"N (51.132767)
Longitude:1346'02"E (13.767161)
Datum:WGS 1984
Elevation:755 ft (230 m)
Variation:4.07E (WMM2015v2 magnetic declination)
0.16 annual change
Runways:1
Longest:8228 × 167 ft (2508 × 51 m), paved

Time
Time Zone:UTC+1 (DST+2)
Local Time:

Weather
METAR:EDDC 041350Z 22009KT 9999 FEW020 02/M01 Q1028 NOSIG
TAF:EDDC 041100Z 0412/0512 22006KT 9999 BKN035
BECMG 0415/0417 16010KT

Related Locations
Nearby:
Farthest:CHT: 11739 mi / 18892 km
Waitangi [Tuuta], CIT, NZ

Find:

   beyond  
but within

Other Information
Maps:
NOTAMs:
Links:
Sources:

  
  • flag of Germany
  • flag of Saxony
  • flag of Dresden
  

Sectional Chart

Flight Planning
at skyvector.com

Satellite Image

Google Maps Satellite view

 

Copyright © 2004-2019 Karl L. Swartz. All rights reserved.
The Great Circle Mapper name and logo are trademarks of the Great Circle Mapper.
All other trademarks mentioned herein belong to their respective owners.
Please see credits for attibutions and further copyright information.

  Follow gcmap on Facebook Follow gcmap on Twitter GCmap on LinkedIn

hCard Microformat

Geo Microformat